Time,TemperatureF,DewpointF,PressureIn,WindDirection,WindDirectionDegrees,WindSpeedMPH,WindSpeedGustMPH,Humidity,HourlyPrecipIn,Conditions,Clouds,dailyrainin,SoftwareType,DateUTC
2013-05-29 00:01:00,57.0,56.5,30.06,East,80,0.0,1.0,98,0.01,,,0.01,meteohub,2013-05-29 04:01:00,
2013-05-29 00:02:00,57.0,56.5,30.06,East,80,0.0,1.0,98,0.01,,,0.01,meteohub,2013-05-29 04:02:00,
2013-05-29 00:04:00,57.0,56.5,30.05,East,81,0.0,1.0,98,0.01,,,0.01,meteohub,2013-05-29 04:04:00,
2013-05-29 00:09:00,57.0,56.5,30.05,East,80,0.0,1.0,98,0.01,,,0.01,meteohub,2013-05-29 04:09:00,
2013-05-29 00:14:00,57.0,56.5,30.06,East,81,0.0,1.0,98,0.01,,,0.01,meteohub,2013-05-29 04:14:00,
2013-05-29 00:19:00,57.0,56.5,30.06,East,81,0.0,0.0,98,0.01,,,0.01,meteohub,2013-05-29 04:19:00,
2013-05-29 00:24:00,57.0,56.5,30.06,East,81,0.0,1.0,98,0.01,,,0.01,meteohub,2013-05-29 04:24:00,
2013-05-29 00:29:00,57.0,56.5,30.06,East,81,0.0,1.0,98,0.01,,,0.01,meteohub,2013-05-29 04:29:00,
2013-05-29 00:34:00,57.2,56.7,30.06,East,80,0.0,1.0,98,0.01,,,0.01,meteohub,2013-05-29 04:34:00,
2013-05-29 00:39:00,57.2,56.7,30.06,East,80,0.0,1.0,98,0.01,,,0.01,meteohub,2013-05-29 04:39:00,
2013-05-29 00:44:00,57.2,56.7,30.06,East,82,0.0,1.0,98,0.01,,,0.01,meteohub,2013-05-29 04:44:00,
2013-05-29 00:49:00,57.2,56.7,30.06,East,80,0.0,0.0,98,0.01,,,0.01,meteohub,2013-05-29 04:49:00,
2013-05-29 00:54:00,57.4,57.0,30.06,East,81,0.0,0.0,99,0.01,,,0.01,meteohub,2013-05-29 04:54:00,
2013-05-29 00:59:00,57.2,56.7,30.06,East,82,0.0,0.0,98,0.00,,,0.01,meteohub,2013-05-29 04:59:00,
2013-05-29 01:04:00,57.4,56.8,30.06,East,81,0.0,0.0,98,0.00,,,0.01,meteohub,2013-05-29 05:04:00,
2013-05-29 01:09:00,57.4,57.0,30.05,East,81,0.0,0.0,99,0.00,,,0.01,meteohub,2013-05-29 05:09:00,
2013-05-29 01:15:00,57.4,56.8,30.05,East,82,0.0,0.0,98,0.00,,,0.01,meteohub,2013-05-29 05:15:00,
2013-05-29 01:20:00,57.2,56.7,30.05,East,80,0.0,0.0,98,0.00,,,0.01,meteohub,2013-05-29 05:20:00,
2013-05-29 01:25:00,57.4,56.8,30.05,East,80,0.0,0.0,98,0.00,,,0.01,meteohub,2013-05-29 05:25:00,
2013-05-29 01:30:00,57.4,57.0,30.05,East,80,0.0,0.0,99,0.00,,,0.01,meteohub,2013-05-29 05:30:00,
2013-05-29 01:35:00,57.4,57.0,30.05,East,82,0.0,0.0,99,0.00,,,0.01,meteohub,2013-05-29 05:35:00,
2013-05-29 01:40:00,57.4,57.0,30.05,East,82,0.0,0.0,99,0.00,,,0.01,meteohub,2013-05-29 05:40:00,
2013-05-29 01:45:00,57.4,57.0,30.05,East,82,0.0,0.0,99,0.00,,,0.01,meteohub,2013-05-29 05:45:00,
2013-05-29 01:50:00,57.4,57.0,30.04,East,82,0.0,0.0,99,0.00,,,0.01,meteohub,2013-05-29 05:50:00,
2013-05-29 01:55:00,57.4,57.0,30.04,East,82,0.0,0.0,99,0.00,,,0.01,meteohub,2013-05-29 05:55:00,
2013-05-29 02:00:00,57.4,57.0,30.04,East,82,0.0,0.0,99,0.00,,,0.01,meteohub,2013-05-29 06:00:00,
2013-05-29 02:05:00,57.4,57.0,30.04,East,82,0.0,0.0,99,0.00,,,0.01,meteohub,2013-05-29 06:05:00,
2013-05-29 02:10:00,57.4,57.0,30.04,East,81,0.0,0.0,99,0.00,,,0.01,meteohub,2013-05-29 06:10:00,
2013-05-29 02:15:00,57.4,57.0,30.04,East,82,0.0,0.0,99,0.00,,,0.01,meteohub,2013-05-29 06:15:00,
2013-05-29 02:20:00,57.2,56.8,30.03,East,81,0.0,0.0,99,0.00,,,0.01,meteohub,2013-05-29 06:20:00,
2013-05-29 02:25:00,57.4,57.0,30.03,East,82,0.0,0.0,99,0.00,,,0.01,meteohub,2013-05-29 06:25:00,
2013-05-29 02:30:00,57.2,56.8,30.03,East,81,0.0,0.0,99,0.00,,,0.01,meteohub,2013-05-29 06:30:00,
2013-05-29 02:35:00,57.2,56.8,30.03,East,82,0.0,0.0,99,0.00,,,0.01,meteohub,2013-05-29 06:35:00,
2013-05-29 02:41:00,57.2,56.8,30.03,East,82,0.0,0.0,99,0.00,,,0.01,meteohub,2013-05-29 06:41:00,
2013-05-29 02:46:00,57.2,56.8,30.03,East,82,0.0,0.0,99,0.00,,,0.01,meteohub,2013-05-29 06:46:00,
2013-05-29 02:51:00,57.2,56.8,30.02,East,82,0.0,0.0,99,0.00,,,0.01,meteohub,2013-05-29 06:51:00,
2013-05-29 02:56:00,57.2,56.8,30.02,East,82,0.0,0.0,99,0.00,,,0.01,meteohub,2013-05-29 06:56:00,
2013-05-29 03:01:00,57.2,56.8,30.02,East,81,0.0,0.0,99,0.00,,,0.01,meteohub,2013-05-29 07:01:00,
2013-05-29 03:06:00,57.2,56.8,30.02,East,80,0.0,0.0,99,0.00,,,0.01,meteohub,2013-05-29 07:06:00,
2013-05-29 03:11:00,57.2,56.8,30.02,East,82,0.0,0.0,99,0.00,,,0.01,meteohub,2013-05-29 07:11:00,
2013-05-29 03:16:00,57.2,56.8,30.02,East,82,0.0,0.0,99,0.00,,,0.01,meteohub,2013-05-29 07:16:00,
2013-05-29 03:21:00,57.2,56.8,30.02,East,82,0.0,0.0,99,0.00,,,0.01,meteohub,2013-05-29 07:21:00,
2013-05-29 03:26:00,57.2,56.8,30.02,East,82,0.0,0.0,99,0.00,,,0.01,meteohub,2013-05-29 07:26:00,
2013-05-29 03:31:00,57.2,56.8,30.01,East,82,0.0,0.0,99,0.00,,,0.01,meteohub,2013-05-29 07:31:00,
2013-05-29 03:36:00,57.2,56.8,30.01,East,82,0.0,0.0,99,0.00,,,0.01,meteohub,2013-05-29 07:36:00,
2013-05-29 03:41:00,57.2,56.8,30.02,East,82,0.0,0.0,99,0.00,,,0.01,meteohub,2013-05-29 07:41:00,
2013-05-29 03:46:00,57.2,56.8,30.02,East,81,0.0,0.0,99,0.00,,,0.01,meteohub,2013-05-29 07:46:00,
2013-05-29 03:52:00,57.2,56.8,30.02,East,82,0.0,0.0,99,0.00,,,0.01,meteohub,2013-05-29 07:52:00,
2013-05-29 03:57:00,57.2,56.8,30.02,East,81,0.0,0.0,99,0.00,,,0.01,meteohub,2013-05-29 07:57:00,
2013-05-29 04:02:00,57.2,56.8,30.02,East,82,0.0,0.0,99,0.00,,,0.01,meteohub,2013-05-29 08:02:00,
2013-05-29 04:07:00,57.2,56.8,30.01,East,82,0.0,0.0,99,0.00,,,0.01,meteohub,2013-05-29 08:07:00,
2013-05-29 04:12:00,57.2,56.8,30.02,East,82,0.0,0.0,99,0.00,,,0.01,meteohub,2013-05-29 08:12:00,
2013-05-29 04:17:00,57.4,57.0,30.02,East,82,0.0,0.0,99,0.00,,,0.01,meteohub,2013-05-29 08:17:00,
2013-05-29 04:22:00,57.4,57.0,30.01,East,82,0.0,0.0,99,0.00,,,0.01,meteohub,2013-05-29 08:22:00,
2013-05-29 04:27:00,57.4,57.0,30.01,East,82,0.0,0.0,99,0.00,,,0.01,meteohub,2013-05-29 08:27:00,
2013-05-29 04:32:00,57.4,57.0,30.01,East,82,0.0,0.0,99,0.00,,,0.01,meteohub,2013-05-29 08:32:00,
2013-05-29 04:37:00,57.4,57.0,30.01,East,82,0.0,0.0,99,0.00,,,0.01,meteohub,2013-05-29 08:37:00,
2013-05-29 04:42:00,57.4,57.0,30.01,East,82,0.0,0.0,99,0.00,,,0.01,meteohub,2013-05-29 08:42:00,
2013-05-29 04:47:00,57.4,57.0,30.01,East,81,0.0,0.0,99,0.00,,,0.01,meteohub,2013-05-29 08:47:00,
2013-05-29 04:52:00,57.4,57.0,30.01,East,82,0.0,0.0,99,0.00,,,0.01,meteohub,2013-05-29 08:52:00,
2013-05-29 04:57:00,57.4,57.0,30.01,East,82,0.0,0.0,99,0.00,,,0.01,meteohub,2013-05-29 08:57:00,
2013-05-29 05:02:00,57.4,57.0,30.01,East,81,0.0,0.0,99,0.00,,,0.01,meteohub,2013-05-29 09:02:00,
2013-05-29 05:07:00,57.4,57.0,30.01,East,82,0.0,0.0,99,0.00,,,0.01,meteohub,2013-05-29 09:07:00,
2013-05-29 05:12:00,57.4,57.0,30.01,East,81,0.0,0.0,99,0.00,,,0.01,meteohub,2013-05-29 09:12:00,
2013-05-29 05:17:00,57.4,57.0,30.01,East,82,0.0,0.0,99,0.00,,,0.01,meteohub,2013-05-29 09:17:00,
2013-05-29 05:22:00,57.4,57.0,30.01,East,82,0.0,0.0,99,0.00,,,0.01,meteohub,2013-05-29 09:22:00,
2013-05-29 05:27:00,57.4,57.0,30.01,East,81,0.0,0.0,99,0.00,,,0.01,meteohub,2013-05-29 09:27:00,
2013-05-29 05:32:00,57.4,57.0,30.01,East,82,0.0,0.0,99,0.00,,,0.01,meteohub,2013-05-29 09:32:00,
2013-05-29 05:37:00,57.4,57.0,30.02,East,82,0.0,0.0,99,0.00,,,0.01,meteohub,2013-05-29 09:37:00,
2013-05-29 05:42:00,57.2,56.8,30.02,East,82,0.0,0.0,99,0.00,,,0.01,meteohub,2013-05-29 09:42:00,
2013-05-29 05:47:00,57.4,57.0,30.02,East,82,0.0,0.0,99,0.00,,,0.01,meteohub,2013-05-29 09:47:00,
2013-05-29 05:52:00,57.4,57.0,30.02,East,82,0.0,0.0,99,0.00,,,0.01,meteohub,2013-05-29 09:52:00,
2013-05-29 05:57:00,57.4,57.0,30.02,East,81,0.0,0.0,99,0.00,,,0.01,meteohub,2013-05-29 09:57:00,
2013-05-29 06:02:00,57.4,57.0,30.02,East,82,0.0,0.0,99,0.00,,,0.01,meteohub,2013-05-29 10:02:00,
2013-05-29 06:07:00,57.6,57.2,30.02,East,82,0.0,0.0,99,0.00,,,0.01,meteohub,2013-05-29 10:07:00,
2013-05-29 06:12:00,57.6,57.2,30.02,East,82,0.0,0.0,99,0.00,,,0.01,meteohub,2013-05-29 10:12:00,
2013-05-29 06:17:00,57.6,57.2,30.02,East,82,0.0,0.0,99,0.00,,,0.01,meteohub,2013-05-29 10:17:00,
2013-05-29 06:22:00,57.7,57.4,30.02,East,82,0.0,0.0,99,0.00,,,0.01,meteohub,2013-05-29 10:22:00,
2013-05-29 06:27:00,57.6,57.2,30.03,East,81,0.0,0.0,99,0.00,,,0.01,meteohub,2013-05-29 10:27:00,
2013-05-29 06:32:00,57.7,57.4,30.03,East,82,0.0,0.0,99,0.00,,,0.01,meteohub,2013-05-29 10:32:00,
2013-05-29 06:37:00,57.7,57.4,30.03,East,82,0.0,0.0,99,0.00,,,0.01,meteohub,2013-05-29 10:37:00,
2013-05-29 06:42:00,57.9,57.6,30.03,East,82,0.0,0.0,99,0.00,,,0.01,meteohub,2013-05-29 10:42:00,
2013-05-29 06:47:00,57.9,57.6,30.02,East,82,0.0,0.0,99,0.00,,,0.01,meteohub,2013-05-29 10:47:00,
2013-05-29 06:52:00,57.9,57.6,30.02,East,82,0.0,0.0,99,0.00,,,0.01,meteohub,2013-05-29 10:52:00,
2013-05-29 06:57:00,57.9,57.6,30.02,East,82,0.0,0.0,99,0.00,,,0.01,meteohub,2013-05-29 10:57:00,
2013-05-29 07:02:00,58.1,57.7,30.02,East,82,0.0,0.0,99,0.00,,,0.01,meteohub,2013-05-29 11:02:00,
2013-05-29 07:07:00,58.3,57.9,30.02,East,82,0.0,0.0,99,0.00,,,0.01,meteohub,2013-05-29 11:07:00,
2013-05-29 07:12:00,58.3,57.9,30.02,East,82,0.0,0.0,99,0.00,,,0.01,meteohub,2013-05-29 11:12:00,
2013-05-29 07:17:00,58.3,57.9,30.03,East,82,0.0,0.0,99,0.00,,,0.01,meteohub,2013-05-29 11:17:00,
2013-05-29 07:22:00,58.5,58.1,30.03,East,82,0.0,0.0,99,0.00,,,0.01,meteohub,2013-05-29 11:22:00,
2013-05-29 07:27:00,58.5,58.1,30.03,East,82,0.0,0.0,99,0.00,,,0.01,meteohub,2013-05-29 11:27:00,
2013-05-29 07:32:00,58.6,58.3,30.03,East,82,0.0,0.0,99,0.00,,,0.01,meteohub,2013-05-29 11:32:00,
2013-05-29 07:37:00,58.8,58.5,30.03,East,82,0.0,0.0,99,0.00,,,0.01,meteohub,2013-05-29 11:37:00,
2013-05-29 07:42:00,58.8,58.5,30.03,East,82,0.0,0.0,99,0.00,,,0.01,meteohub,2013-05-29 11:42:00,
2013-05-29 07:47:00,59.0,58.6,30.03,East,82,0.0,0.0,99,0.00,,,0.01,meteohub,2013-05-29 11:47:00,
2013-05-29 07:52:00,59.0,58.6,30.03,East,82,0.0,0.0,99,0.00,,,0.01,meteohub,2013-05-29 11:52:00,
2013-05-29 07:57:00,59.2,58.8,30.03,East,82,0.0,0.0,99,0.00,,,0.01,meteohub,2013-05-29 11:57:00,
2013-05-29 08:02:00,59.4,59.0,30.03,East,82,0.0,0.0,99,0.00,,,0.01,meteohub,2013-05-29 12:02:00,
2013-05-29 08:07:00,59.4,59.0,30.03,East,82,0.0,0.0,99,0.00,,,0.01,meteohub,2013-05-29 12:07:00,
2013-05-29 08:12:00,59.5,59.2,30.03,East,82,0.0,0.0,99,0.00,,,0.01,meteohub,2013-05-29 12:12:00,
2013-05-29 08:17:00,59.7,59.4,30.03,East,82,0.0,0.0,99,0.00,,,0.01,meteohub,2013-05-29 12:17:00,
2013-05-29 08:22:00,59.7,59.4,30.04,East,82,0.0,0.0,99,0.00,,,0.01,meteohub,2013-05-29 12:22:00,
2013-05-29 08:27:00,59.7,59.4,30.04,East,82,0.0,0.0,99,0.00,,,0.01,meteohub,2013-05-29 12:27:00,
2013-05-29 08:32:00,59.7,59.4,30.04,East,82,0.0,0.0,99,0.00,,,0.01,meteohub,2013-05-29 12:32:00,
2013-05-29 08:37:00,60.3,59.9,30.04,East,82,0.0,0.0,99,0.00,,,0.01,meteohub,2013-05-29 12:37:00,
2013-05-29 08:42:00,60.3,59.9,30.04,East,82,0.0,0.0,99,0.00,,,0.01,meteohub,2013-05-29 12:42:00,
2013-05-29 08:47:00,60.4,60.1,30.04,East,82,0.0,0.0,99,0.00,,,0.01,meteohub,2013-05-29 12:47:00,
2013-05-29 08:52:00,60.6,60.3,30.04,East,82,0.0,1.0,99,0.00,,,0.01,meteohub,2013-05-29 12:52:00,
2013-05-29 08:57:00,61.0,60.6,30.04,East,82,0.0,1.0,99,0.00,,,0.01,meteohub,2013-05-29 12:57:00,
2013-05-29 09:02:00,61.2,60.8,30.04,East,82,0.0,1.0,99,0.00,,,0.01,meteohub,2013-05-29 13:02:00,
2013-05-29 09:07:00,61.3,60.8,30.04,East,82,0.0,1.0,98,0.00,,,0.01,meteohub,2013-05-29 13:07:00,
2013-05-29 09:12:00,61.3,61.0,30.04,East,82,0.0,1.0,99,0.00,,,0.01,meteohub,2013-05-29 13:12:00,
2013-05-29 09:17:00,61.5,61.0,30.04,ESE,110,0.0,1.0,98,0.00,,,0.01,meteohub,2013-05-29 13:17:00,
2013-05-29 09:22:00,61.5,61.2,30.04,SSE,166,1.0,1.0,99,0.00,,,0.01,meteohub,2013-05-29 13:22:00,
2013-05-29 09:27:00,61.9,61.5,30.04,SSE,166,0.0,1.0,99,0.00,,,0.01,meteohub,2013-05-29 13:27:00,
2013-05-29 09:32:00,62.1,61.5,30.04,SSE,166,0.0,1.0,98,0.00,,,0.01,meteohub,2013-05-29 13:32:00,
2013-05-29 09:37:00,62.2,61.7,30.04,WNW,297,0.0,1.0,98,0.00,,,0.01,meteohub,2013-05-29 13:37:00,
2013-05-29 09:42:00,62.2,61.7,30.04,WNW,297,0.0,1.0,98,0.00,,,0.01,meteohub,2013-05-29 13:42:00,
2013-05-29 09:47:00,62.4,61.9,30.04,WNW,297,0.0,1.0,98,0.00,,,0.01,meteohub,2013-05-29 13:47:00,
2013-05-29 09:52:00,62.4,61.9,30.04,WNW,297,0.0,0.0,98,0.00,,,0.01,meteohub,2013-05-29 13:52:00,
2013-05-29 09:57:00,62.8,62.2,30.04,WNW,297,0.0,0.0,98,0.00,,,0.01,meteohub,2013-05-29 13:57:00,
2013-05-29 10:02:00,63.0,62.4,30.04,WNW,297,0.0,0.0,98,0.00,,,0.01,meteohub,2013-05-29 14:02:00,
2013-05-29 10:07:00,63.1,62.6,30.04,East,97,0.0,0.0,98,0.00,,,0.01,meteohub,2013-05-29 14:07:00,
2013-05-29 10:12:00,63.5,63.0,30.04,East,98,0.0,2.0,98,0.00,,,0.01,meteohub,2013-05-29 14:12:00,
2013-05-29 10:17:00,63.9,63.3,30.04,SSE,156,1.0,2.0,98,0.00,,,0.01,meteohub,2013-05-29 14:17:00,
2013-05-29 10:22:00,64.0,63.5,30.04,NE,56,0.0,3.0,98,0.00,,,0.01,meteohub,2013-05-29 14:22:00,
2013-05-29 10:27:00,64.6,64.0,30.04,SE,135,0.0,3.0,98,0.00,,,0.01,meteohub,2013-05-29 14:27:00,
2013-05-29 10:32:00,64.8,63.9,30.04,SE,135,0.0,3.0,97,0.00,,,0.01,meteohub,2013-05-29 14:32:00,
2013-05-29 10:37:00,65.1,64.2,30.05,SE,136,1.0,1.0,97,0.00,,,0.01,meteohub,2013-05-29 14:37:00,
2013-05-29 10:42:00,65.5,64.6,30.04,SW,225,0.0,2.0,97,0.00,,,0.01,meteohub,2013-05-29 14:42:00,
2013-05-29 10:47:00,65.8,64.6,30.04,North,349,0.0,2.0,96,0.00,,,0.01,meteohub,2013-05-29 14:47:00,
2013-05-29 10:52:00,66.2,64.9,30.04,SW,215,0.0,2.0,96,0.00,,,0.01,meteohub,2013-05-29 14:52:00,
2013-05-29 10:57:00,66.7,65.8,30.04,South,174,1.0,2.0,97,0.00,,,0.01,meteohub,2013-05-29 14:57:00,
2013-05-29 11:02:00,67.3,66.0,30.04,South,190,0.0,2.0,96,0.00,,,0.01,meteohub,2013-05-29 15:02:00,
2013-05-29 11:07:00,67.6,65.8,30.04,SSW,192,0.0,2.0,94,0.00,,,0.01,meteohub,2013-05-29 15:07:00,
2013-05-29 11:12:00,68.0,65.8,30.04,WNW,286,1.0,2.0,93,0.00,,,0.01,meteohub,2013-05-29 15:12:00,
2013-05-29 11:17:00,68.4,66.2,30.04,ENE,59,1.0,3.0,93,0.00,,,0.01,meteohub,2013-05-29 15:17:00,
2013-05-29 11:22:00,69.1,67.3,30.04,SSE,159,1.0,3.0,94,0.00,,,0.01,meteohub,2013-05-29 15:22:00,
2013-05-29 11:27:00,69.8,67.3,30.04,East,97,0.0,3.0,92,0.00,,,0.01,meteohub,2013-05-29 15:27:00,
2013-05-29 11:33:00,70.5,67.8,30.04,SE,124,1.0,1.0,91,0.00,,,0.01,meteohub,2013-05-29 15:33:00,
2013-05-29 11:38:00,70.9,67.1,30.03,SE,128,1.0,2.0,88,0.00,,,0.01,meteohub,2013-05-29 15:38:00,
2013-05-29 11:43:00,71.1,67.3,30.03,SSW,211,2.0,3.0,88,0.00,,,0.01,meteohub,2013-05-29 15:43:00,
2013-05-29 11:48:00,71.4,67.6,30.03,South,183,1.0,3.0,88,0.00,,,0.01,meteohub,2013-05-29 15:48:00,
2013-05-29 11:53:00,72.0,68.2,30.03,ESE,113,0.0,3.0,88,0.00,,,0.01,meteohub,2013-05-29 15:53:00,
2013-05-29 11:58:00,72.3,68.5,30.03,NW,306,2.0,3.0,88,0.00,,,0.01,meteohub,2013-05-29 15:58:00,
2013-05-29 12:03:00,72.3,68.2,30.03,West,270,1.0,3.0,87,0.00,,,0.01,meteohub,2013-05-29 16:03:00,
2013-05-29 12:08:00,72.7,68.5,30.03,SW,214,0.0,3.0,87,0.00,,,0.01,meteohub,2013-05-29 16:08:00,
2013-05-29 12:13:00,73.9,70.2,30.03,SSW,203,1.0,4.0,88,0.00,,,0.01,meteohub,2013-05-29 16:13:00,
2013-05-29 12:18:00,74.7,69.4,30.03,WNW,294,2.0,4.0,84,0.00,,,0.01,meteohub,2013-05-29 16:18:00,
2013-05-29 12:23:00,74.8,69.6,30.02,West,273,2.0,3.0,84,0.00,,,0.01,meteohub,2013-05-29 16:23:00,
2013-05-29 12:28:00,75.6,70.3,30.02,WNW,288,3.0,4.0,84,0.00,,,0.01,meteohub,2013-05-29 16:28:00,
2013-05-29 12:33:00,76.1,70.2,30.02,WNW,301,3.0,4.0,82,0.00,,,0.01,meteohub,2013-05-29 16:33:00,
2013-05-29 12:38:00,76.8,71.2,30.02,WSW,243,1.0,4.0,83,0.00,,,0.01,meteohub,2013-05-29 16:38:00,
2013-05-29 12:43:00,77.5,71.6,30.01,South,183,1.0,4.0,82,0.00,,,0.01,meteohub,2013-05-29 16:43:00,
2013-05-29 12:49:00,79.0,73.4,30.02,SSW,203,1.0,3.0,83,0.00,,,0.01,meteohub,2013-05-29 16:49:00,
2013-05-29 12:54:00,79.9,73.2,30.02,ESE,103,2.0,3.0,80,0.00,,,0.01,meteohub,2013-05-29 16:54:00,
2013-05-29 12:59:00,80.6,73.0,30.01,South,187,2.0,3.0,78,0.00,,,0.01,meteohub,2013-05-29 16:59:00,
2013-05-29 13:04:00,81.0,72.0,30.01,WSW,248,3.0,3.0,74,0.00,,,0.01,meteohub,2013-05-29 17:04:00,
2013-05-29 13:09:00,81.0,70.7,30.01,WSW,242,1.0,5.0,71,0.00,,,0.01,meteohub,2013-05-29 17:09:00,
2013-05-29 13:14:00,81.7,72.5,30.01,North,356,0.0,6.0,74,0.00,,,0.01,meteohub,2013-05-29 17:14:00,
2013-05-29 13:19:00,82.2,71.1,30.01,West,267,3.0,6.0,69,0.00,,,0.01,meteohub,2013-05-29 17:19:00,
2013-05-29 13:24:00,82.0,71.2,30.01,West,273,2.0,6.0,70,0.00,,,0.01,meteohub,2013-05-29 17:24:00,
2013-05-29 13:29:00,82.2,70.5,30.01,WSW,255,2.0,7.0,68,0.00,,,0.01,meteohub,2013-05-29 17:29:00,
2013-05-29 13:34:00,82.6,72.1,30.00,SSW,204,5.0,7.0,71,0.00,,,0.01,meteohub,2013-05-29 17:34:00,
2013-05-29 13:39:00,83.1,72.3,30.00,WSW,253,2.0,7.0,70,0.00,,,0.01,meteohub,2013-05-29 17:39:00,
2013-05-29 13:44:00,83.5,71.4,30.00,WNW,294,4.0,7.0,67,0.00,,,0.01,meteohub,2013-05-29 17:44:00,
2013-05-29 13:50:00,83.8,72.5,30.00,West,281,0.0,7.0,69,0.00,,,0.01,meteohub,2013-05-29 17:50:00,
2013-05-29 13:55:00,84.2,70.2,30.00,West,265,1.0,6.0,63,0.00,,,0.01,meteohub,2013-05-29 17:55:00,
2013-05-29 14:00:00,84.2,72.5,30.00,SW,228,1.0,6.0,68,0.00,,,0.01,meteohub,2013-05-29 18:00:00,
2013-05-29 14:05:00,84.7,71.6,29.99,ENE,72,3.0,6.0,65,0.00,,,0.01,meteohub,2013-05-29 18:05:00,
2013-05-29 14:10:00,85.1,71.6,29.99,SSW,212,2.0,4.0,64,0.00,,,0.01,meteohub,2013-05-29 18:10:00,
2013-05-29 14:16:00,84.9,70.9,29.99,WSW,244,6.0,6.0,63,0.00,,,0.01,meteohub,2013-05-29 18:16:00,
2013-05-29 14:21:00,84.7,69.8,29.99,SW,220,2.0,10.0,61,0.00,,,0.01,meteohub,2013-05-29 18:21:00,
2013-05-29 14:27:00,85.3,70.7,29.99,SSW,201,2.0,10.0,62,0.00,,,0.01,meteohub,2013-05-29 18:27:00,
2013-05-29 14:32:00,85.6,71.1,29.99,South,180,2.0,7.0,62,0.00,,,0.01,meteohub,2013-05-29 18:32:00,
2013-05-29 14:37:00,86.0,72.3,29.99,WSW,244,3.0,7.0,64,0.00,,,0.01,meteohub,2013-05-29 18:37:00,
2013-05-29 14:42:00,86.5,73.4,29.98,WNW,298,5.0,7.0,65,0.00,,,0.01,meteohub,2013-05-29 18:42:00,
2013-05-29 14:47:00,86.5,71.1,29.98,WNW,288,2.0,6.0,60,0.00,,,0.01,meteohub,2013-05-29 18:47:00,
2013-05-29 14:52:00,86.5,70.0,29.98,NW,305,2.0,6.0,58,0.00,,,0.01,meteohub,2013-05-29 18:52:00,
2013-05-29 14:57:00,86.2,69.1,29.98,WNW,301,3.0,6.0,57,0.00,,,0.01,meteohub,2013-05-29 18:57:00,
2013-05-29 15:02:00,86.5,68.9,29.98,SW,231,4.0,6.0,56,0.00,,,0.01,meteohub,2013-05-29 19:02:00,
2013-05-29 15:07:00,86.5,68.9,29.98,WNW,291,3.0,8.0,56,0.00,,,0.01,meteohub,2013-05-29 19:07:00,
2013-05-29 15:12:00,86.9,68.7,29.98,West,270,4.0,8.0,55,0.00,,,0.01,meteohub,2013-05-29 19:12:00,
2013-05-29 15:18:00,87.3,71.2,29.98,WNW,288,4.0,8.0,59,0.00,,,0.01,meteohub,2013-05-29 19:18:00,
2013-05-29 15:23:00,87.3,69.1,29.98,SSW,198,1.0,6.0,55,0.00,,,0.01,meteohub,2013-05-29 19:23:00,
2013-05-29 15:28:00,87.6,70.5,29.98,NW,308,2.0,8.0,57,0.00,,,0.01,meteohub,2013-05-29 19:28:00,
2013-05-29 15:33:00,88.2,70.5,29.98,WNW,295,5.0,8.0,56,0.00,,,0.01,meteohub,2013-05-29 19:33:00,
2013-05-29 15:38:00,87.4,68.7,29.98,West,268,3.0,11.0,54,0.00,,,0.01,meteohub,2013-05-29 19:38:00,
2013-05-29 15:43:00,87.6,71.1,29.98,WSW,256,1.0,11.0,58,0.00,,,0.01,meteohub,2013-05-29 19:43:00,
2013-05-29 15:48:00,88.2,69.4,29.98,WNW,293,4.0,11.0,54,0.00,,,0.01,meteohub,2013-05-29 19:48:00,
2013-05-29 15:53:00,88.0,69.3,29.97,West,259,1.0,7.0,54,0.00,,,0.01,meteohub,2013-05-29 19:53:00,
2013-05-29 15:58:00,87.8,69.1,29.97,WNW,292,2.0,7.0,54,0.00,,,0.01,meteohub,2013-05-29 19:58:00,
2013-05-29 16:03:00,87.6,69.4,29.97,WNW,301,2.0,8.0,55,0.00,,,0.01,meteohub,2013-05-29 20:03:00,
2013-05-29 16:08:00,88.0,69.8,29.97,SW,233,2.0,9.0,55,0.00,,,0.01,meteohub,2013-05-29 20:08:00,
2013-05-29 16:13:00,88.0,69.8,29.97,WSW,246,2.0,9.0,55,0.00,,,0.01,meteohub,2013-05-29 20:13:00,
2013-05-29 16:18:00,88.2,69.4,29.97,West,260,3.0,9.0,54,0.00,,,0.01,meteohub,2013-05-29 20:18:00,
2013-05-29 16:23:00,88.0,68.2,29.96,WNW,298,1.0,6.0,52,0.00,,,0.01,meteohub,2013-05-29 20:23:00,
2013-05-29 16:28:00,88.2,70.0,29.96,SW,219,0.0,8.0,55,0.00,,,0.01,meteohub,2013-05-29 20:28:00,
2013-05-29 16:33:00,88.2,69.4,29.96,SW,236,3.0,8.0,54,0.00,,,0.01,meteohub,2013-05-29 20:33:00,
2013-05-29 16:39:00,88.3,69.6,29.96,West,259,3.0,8.0,54,0.00,,,0.01,meteohub,2013-05-29 20:39:00,
2013-05-29 16:44:00,88.3,68.0,29.96,West,274,2.0,7.0,51,0.00,,,0.01,meteohub,2013-05-29 20:44:00,
2013-05-29 16:49:00,88.3,70.2,29.96,WNW,300,5.0,7.0,55,0.00,,,0.01,meteohub,2013-05-29 20:49:00,
2013-05-29 16:54:00,88.2,67.8,29.96,West,270,2.0,6.0,51,0.00,,,0.01,meteohub,2013-05-29 20:54:00,
2013-05-29 16:59:00,88.5,68.7,29.96,SW,229,2.0,7.0,52,0.00,,,0.01,meteohub,2013-05-29 20:59:00,
2013-05-29 17:04:00,88.9,68.4,29.96,WNW,298,2.0,7.0,51,0.00,,,0.01,meteohub,2013-05-29 21:04:00,
2013-05-29 17:09:00,88.7,68.2,29.96,West,267,2.0,7.0,51,0.00,,,0.01,meteohub,2013-05-29 21:09:00,
2013-05-29 17:14:00,88.5,67.5,29.96,SW,228,1.0,5.0,50,0.00,,,0.01,meteohub,2013-05-29 21:14:00,
2013-05-29 17:19:00,88.3,68.5,29.95,West,281,1.0,7.0,52,0.00,,,0.01,meteohub,2013-05-29 21:19:00,
2013-05-29 17:24:00,88.3,70.2,29.95,NE,46,2.0,7.0,55,0.00,,,0.01,meteohub,2013-05-29 21:24:00,
2013-05-29 17:29:00,88.2,68.4,29.95,WNW,283,1.0,7.0,52,0.00,,,0.01,meteohub,2013-05-29 21:29:00,
2013-05-29 17:34:00,88.3,71.2,29.95,South,169,0.0,8.0,57,0.00,,,0.01,meteohub,2013-05-29 21:34:00,
2013-05-29 17:39:00,88.9,68.4,29.95,West,266,2.0,8.0,51,0.00,,,0.01,meteohub,2013-05-29 21:39:00,
2013-05-29 17:44:00,88.3,68.5,29.95,SSW,211,1.0,5.0,52,0.00,,,0.01,meteohub,2013-05-29 21:44:00,
2013-05-29 17:49:00,88.0,68.7,29.95,SW,235,1.0,4.0,53,0.00,,,0.01,meteohub,2013-05-29 21:49:00,
2013-05-29 17:54:00,87.8,68.5,29.95,West,264,0.0,5.0,53,0.00,,,0.01,meteohub,2013-05-29 21:54:00,
2013-05-29 18:00:00,87.3,68.5,29.96,West,267,1.0,5.0,54,0.00,,,0.01,meteohub,2013-05-29 22:00:00,
2013-05-29 18:05:00,86.7,67.5,29.96,West,281,1.0,5.0,53,0.00,,,0.01,meteohub,2013-05-29 22:05:00,
2013-05-29 18:10:00,86.5,68.4,29.96,West,280,1.0,5.0,55,0.00,,,0.01,meteohub,2013-05-29 22:10:00,
2013-05-29 18:15:00,86.4,67.8,29.95,WSW,249,0.0,5.0,54,0.00,,,0.01,meteohub,2013-05-29 22:15:00,
2013-05-29 18:20:00,86.4,67.3,29.95,SW,224,2.0,5.0,53,0.00,,,0.01,meteohub,2013-05-29 22:20:00,
2013-05-29 18:25:00,85.8,67.3,29.95,West,273,0.0,5.0,54,0.00,,,0.01,meteohub,2013-05-29 22:25:00,
2013-05-29 18:30:00,85.8,67.3,29.95,SW,231,0.0,5.0,54,0.00,,,0.01,meteohub,2013-05-29 22:30:00,
2013-05-29 18:35:00,85.6,66.0,29.94,WNW,283,5.0,8.0,52,0.00,,,0.01,meteohub,2013-05-29 22:35:00,
2013-05-29 18:40:00,85.6,66.6,29.95,WSW,253,1.0,8.0,53,0.00,,,0.01,meteohub,2013-05-29 22:40:00,
2013-05-29 18:45:00,85.5,66.4,29.95,WNW,292,1.0,8.0,53,0.00,,,0.01,meteohub,2013-05-29 22:45:00,
2013-05-29 18:50:00,85.3,66.7,29.95,WSW,248,0.0,6.0,54,0.00,,,0.01,meteohub,2013-05-29 22:50:00,
2013-05-29 18:55:00,84.9,67.5,29.95,SW,221,0.0,4.0,56,0.00,,,0.01,meteohub,2013-05-29 22:55:00,
2013-05-29 19:00:00,84.6,69.6,29.95,WNW,290,0.0,4.0,61,0.00,,,0.01,meteohub,2013-05-29 23:00:00,
2013-05-29 19:05:00,83.8,68.9,29.95,WNW,289,0.0,4.0,61,0.00,,,0.01,meteohub,2013-05-29 23:05:00,
2013-05-29 19:11:00,83.1,68.7,29.95,WNW,288,0.0,2.0,62,0.00,,,0.01,meteohub,2013-05-29 23:11:00,
2013-05-29 19:16:00,82.6,68.7,29.95,WSW,249,0.0,3.0,63,0.00,,,0.01,meteohub,2013-05-29 23:16:00,
2013-05-29 19:21:00,82.2,68.4,29.95,West,259,0.0,3.0,63,0.00,,,0.01,meteohub,2013-05-29 23:21:00,
2013-05-29 19:26:00,81.7,69.3,29.95,WNW,298,1.0,2.0,66,0.00,,,0.01,meteohub,2013-05-29 23:26:00,
2013-05-29 19:31:00,80.8,69.6,29.94,West,259,0.0,1.0,69,0.00,,,0.01,meteohub,2013-05-29 23:31:00,
2013-05-29 19:36:00,80.1,68.9,29.94,West,259,0.0,1.0,69,0.00,,,0.01,meteohub,2013-05-29 23:36:00,
2013-05-29 19:41:00,79.2,69.3,29.94,West,260,0.0,1.0,72,0.00,,,0.01,meteohub,2013-05-29 23:41:00,
2013-05-29 19:46:00,78.4,69.1,29.94,West,259,1.0,1.0,73,0.00,,,0.01,meteohub,2013-05-29 23:46:00,
2013-05-29 19:51:00,77.4,68.4,29.94,West,259,0.0,1.0,74,0.00,,,0.01,meteohub,2013-05-29 23:51:00,
2013-05-29 19:56:00,76.3,68.5,29.94,West,259,0.0,1.0,77,0.00,,,0.01,meteohub,2013-05-29 23:56:00,
2013-05-29 20:01:00,75.6,68.2,29.94,West,259,0.0,1.0,78,0.00,,,0.01,meteohub,2013-05-30 00:01:00,
2013-05-29 20:06:00,75.0,67.6,29.94,West,259,0.0,0.0,78,0.00,,,0.00,meteohub,2013-05-30 00:06:00,
2013-05-29 20:11:00,74.7,67.6,29.94,West,259,0.0,0.0,79,0.00,,,0.00,meteohub,2013-05-30 00:11:00,
2013-05-29 20:16:00,73.9,68.2,29.95,West,259,0.0,0.0,82,0.00,,,0.00,meteohub,2013-05-30 00:16:00,
2013-05-29 20:21:00,73.4,67.6,29.95,West,259,0.0,0.0,82,0.00,,,0.00,meteohub,2013-05-30 00:21:00,
2013-05-29 20:26:00,72.9,67.5,29.95,West,260,0.0,0.0,83,0.00,,,0.00,meteohub,2013-05-30 00:26:00,
2013-05-29 20:32:00,72.1,67.1,29.95,North,359,0.0,0.0,84,0.00,,,0.00,meteohub,2013-05-30 00:32:00,
2013-05-29 20:37:00,71.8,67.1,29.95,North,359,0.0,0.0,85,0.00,,,0.00,meteohub,2013-05-30 00:37:00,
2013-05-29 20:42:00,71.2,66.6,29.95,North,359,0.0,0.0,85,0.00,,,0.00,meteohub,2013-05-30 00:42:00,
2013-05-29 20:47:00,70.9,66.6,29.95,NE,51,1.0,0.0,86,0.00,,,0.00,meteohub,2013-05-30 00:47:00,
2013-05-29 20:52:00,70.5,66.4,29.95,NE,49,0.0,1.0,87,0.00,,,0.00,meteohub,2013-05-30 00:52:00,
2013-05-29 20:57:00,70.3,66.6,29.95,NE,51,0.0,1.0,88,0.00,,,0.00,meteohub,2013-05-30 00:57:00,
2013-05-29 21:02:00,70.0,66.2,29.95,NE,49,0.0,1.0,88,0.00,,,0.00,meteohub,2013-05-30 01:02:00,
2013-05-29 21:07:00,69.8,66.0,29.96,NE,49,0.0,1.0,88,0.00,,,0.00,meteohub,2013-05-30 01:07:00,
2013-05-29 21:12:00,69.6,66.2,29.96,NE,49,0.0,0.0,89,0.00,,,0.00,meteohub,2013-05-30 01:12:00,
2013-05-29 21:17:00,69.6,66.2,29.96,NE,50,0.0,0.0,89,0.00,,,0.00,meteohub,2013-05-30 01:17:00,
2013-05-29 21:22:00,69.6,66.2,29.96,NE,49,0.0,0.0,89,0.00,,,0.00,meteohub,2013-05-30 01:22:00,
2013-05-29 21:27:00,69.4,66.0,29.96,NE,49,0.0,0.0,89,0.00,,,0.00,meteohub,2013-05-30 01:27:00,
2013-05-29 21:32:00,69.3,66.2,29.97,NE,49,0.0,0.0,90,0.00,,,0.00,meteohub,2013-05-30 01:32:00,
2013-05-29 21:37:00,69.1,66.0,29.97,NE,49,0.0,0.0,90,0.00,,,0.00,meteohub,2013-05-30 01:37:00,
2013-05-29 21:42:00,69.1,66.0,29.96,NE,51,0.0,0.0,90,0.00,,,0.00,meteohub,2013-05-30 01:42:00,
2013-05-29 21:47:00,68.9,66.2,29.97,NE,51,0.0,0.0,91,0.00,,,0.00,meteohub,2013-05-30 01:47:00,
2013-05-29 21:52:00,68.7,66.0,29.97,NE,49,0.0,0.0,91,0.00,,,0.00,meteohub,2013-05-30 01:52:00,
2013-05-29 21:57:00,69.1,66.7,29.97,WNW,303,0.0,2.0,92,0.00,,,0.00,meteohub,2013-05-30 01:57:00,
2013-05-29 22:02:00,69.4,66.4,29.97,NW,312,0.0,3.0,90,0.00,,,0.00,meteohub,2013-05-30 02:02:00,
2013-05-29 22:07:00,69.4,66.4,29.98,NW,312,0.0,3.0,90,0.00,,,0.00,meteohub,2013-05-30 02:07:00,
2013-05-29 22:12:00,69.4,66.4,29.98,NW,312,0.0,3.0,90,0.00,,,0.00,meteohub,2013-05-30 02:12:00,
2013-05-29 22:17:00,69.3,66.6,29.98,NW,312,0.0,0.0,91,0.00,,,0.00,meteohub,2013-05-30 02:17:00,
2013-05-29 22:22:00,69.1,66.4,29.98,NW,312,0.0,0.0,91,0.00,,,0.00,meteohub,2013-05-30 02:22:00,
2013-05-29 22:27:00,68.7,66.0,29.99,NW,312,0.0,0.0,91,0.00,,,0.00,meteohub,2013-05-30 02:27:00,
2013-05-29 22:32:00,68.5,66.2,29.99,NW,312,0.0,0.0,92,0.00,,,0.00,meteohub,2013-05-30 02:32:00,
2013-05-29 22:37:00,68.4,66.0,29.99,NW,312,0.0,0.0,92,0.00,,,0.00,meteohub,2013-05-30 02:37:00,
2013-05-29 22:42:00,68.2,65.8,29.99,NW,312,0.0,0.0,92,0.00,,,0.00,meteohub,2013-05-30 02:42:00,
2013-05-29 22:47:00,68.0,65.8,29.99,NW,312,0.0,0.0,93,0.00,,,0.00,meteohub,2013-05-30 02:47:00,
2013-05-29 22:52:00,67.8,65.7,29.99,NW,312,0.0,0.0,93,0.00,,,0.00,meteohub,2013-05-30 02:52:00,
2013-05-29 22:57:00,67.8,65.7,29.99,NW,312,0.0,0.0,93,0.00,,,0.00,meteohub,2013-05-30 02:57:00,
2013-05-29 23:02:00,67.6,65.5,30.00,NW,312,0.0,0.0,93,0.00,,,0.00,meteohub,2013-05-30 03:02:00,
2013-05-29 23:07:00,67.5,65.7,30.00,NW,312,0.0,0.0,94,0.00,,,0.00,meteohub,2013-05-30 03:07:00,
2013-05-29 23:12:00,67.5,65.7,30.00,NW,312,0.0,0.0,94,0.00,,,0.00,meteohub,2013-05-30 03:12:00,
2013-05-29 23:17:00,67.3,65.5,30.00,NNW,345,0.0,0.0,94,0.00,,,0.00,meteohub,2013-05-30 03:17:00,
2013-05-29 23:22:00,67.3,65.5,30.00,NNW,345,0.0,0.0,94,0.00,,,0.00,meteohub,2013-05-30 03:22:00,
2013-05-29 23:27:00,67.3,65.8,30.00,NNW,345,0.0,0.0,95,0.00,,,0.00,meteohub,2013-05-30 03:27:00,
2013-05-29 23:32:00,67.1,65.7,30.01,NNW,345,0.0,0.0,95,0.00,,,0.00,meteohub,2013-05-30 03:32:00,
2013-05-29 23:37:00,67.1,65.7,30.01,NNW,345,0.0,0.0,95,0.00,,,0.00,meteohub,2013-05-30 03:37:00,
2013-05-29 23:42:00,67.1,65.7,30.01,NNW,345,0.0,0.0,95,0.00,,,0.00,meteohub,2013-05-30 03:42:00,
2013-05-29 23:47:00,66.9,65.5,30.00,NNW,345,0.0,0.0,95,0.00,,,0.00,meteohub,2013-05-30 03:47:00,
2013-05-29 23:52:00,66.9,65.5,30.01,NNW,345,0.0,0.0,95,0.00,,,0.00,meteohub,2013-05-30 03:52:00,
2013-05-29 23:57:00,66.7,65.3,30.01,NNW,345,0.0,0.0,95,0.00,,,0.00,meteohub,2013-05-30 03:57:00,